Time;durP1;ratioP1;P1;durP2;ratioP2;P2;SDS_P1;SDS_P2;PMS_P1;PMS_P2;Temp;Humidity;BMP_temperature;BMP_pressure;BME280_temperature;BME280_humidity;BME280_pressure;Samples;Min_cycle;Max_cycle;Signal;HPM_P1;HPM_P2
2021/01/22 00:00:57;;;;;;;18.45;9.57;;;;;;;5.77;70.11;97792.84;4952499;29;20032;-81
2021/01/22 00:03:23;;;;;;;26.42;13.10;;;;;;;5.60;70.75;97800.56;4949325;29;20028;-81
2021/01/22 00:05:48;;;;;;;24.65;12.05;;;;;;;5.51;71.83;97808.88;4949009;29;20038;-81
2021/01/22 00:08:14;;;;;;;23.58;11.60;;;;;;;5.41;71.85;97807.50;4951302;29;20008;-81
2021/01/22 00:10:39;;;;;;;39.20;18.02;;;;;;;5.35;72.73;97818.34;4952108;29;20071;-81
2021/01/22 00:13:05;;;;;;;34.60;17.25;;;;;;;5.29;73.19;97797.38;4950280;29;20075;-81
2021/01/22 00:15:31;;;;;;;44.17;20.75;;;;;;;5.11;73.77;97801.53;4969867;29;20091;-81
2021/01/22 00:17:57;;;;;;;49.25;23.42;;;;;;;4.99;74.54;97806.41;4949133;29;20126;-81
2021/01/22 00:20:23;;;;;;;44.90;21.75;;;;;;;4.86;75.42;97809.50;4952416;29;20020;-81
2021/01/22 00:22:48;;;;;;;68.05;34.03;;;;;;;4.76;76.71;97808.09;4935695;29;20034;-81
2021/01/22 00:25:14;;;;;;;71.25;32.05;;;;;;;4.75;76.55;97800.19;4935842;29;20571;-81
2021/01/22 00:27:39;;;;;;;70.53;29.85;;;;;;;4.62;77.28;97802.41;4949216;29;20035;-81
2021/01/22 00:30:06;;;;;;;59.58;26.08;;;;;;;4.69;77.63;97798.63;4968543;29;20031;-81
2021/01/22 00:32:31;;;;;;;59.70;28.05;;;;;;;4.64;77.59;97797.94;4968335;29;20028;-81
2021/01/22 00:34:57;;;;;;;52.58;25.77;;;;;;;4.43;78.46;97793.34;4952693;29;20030;-81
2021/01/22 00:37:22;;;;;;;62.17;25.02;;;;;;;4.43;78.65;97793.34;4936678;29;20035;-81
2021/01/22 00:39:48;;;;;;;50.08;24.50;;;;;;;4.36;79.20;97792.72;4952523;29;20042;-80
2021/01/22 00:42:13;;;;;;;43.03;21.77;;;;;;;4.30;79.76;97795.56;4935950;29;20095;-82
2021/01/22 00:44:41;;;;;;;50.47;22.90;;;;;;;4.38;79.65;97795.28;4935293;29;20028;-82
2021/01/22 00:47:06;;;;;;;52.00;24.75;;;;;;;4.42;79.84;97791.63;4951471;29;20488;-82
2021/01/22 00:49:32;;;;;;;28.83;12.85;;;;;;;4.58;79.52;97806.09;4951126;29;20087;-82
2021/01/22 00:51:57;;;;;;;50.90;24.55;;;;;;;4.71;78.08;97777.38;4950054;29;20052;-82
2021/01/22 00:54:23;;;;;;;63.50;28.30;;;;;;;4.81;77.87;97792.03;4948908;29;20510;-81
2021/01/22 00:56:48;;;;;;;46.00;20.45;;;;;;;4.73;77.75;97789.66;4949193;29;20040;-80
2021/01/22 00:59:14;;;;;;;51.42;24.20;;;;;;;4.79;77.66;97786.81;4950569;29;20035;-81
2021/01/22 01:01:39;;;;;;;42.20;19.88;;;;;;;4.73;77.74;97781.72;4933925;29;20034;-81
2021/01/22 01:04:05;;;;;;;52.08;23.05;;;;;;;4.72;77.82;97774.69;4936359;29;20023;-80
2021/01/22 01:06:31;;;;;;;55.63;25.50;;;;;;;4.68;77.77;97762.44;4951548;29;20019;-80
2021/01/22 01:08:57;;;;;;;31.10;14.75;;;;;;;4.93;77.66;97759.78;4934456;29;20102;-80
2021/01/22 01:11:23;;;;;;;37.88;17.58;;;;;;;5.10;77.09;97760.06;4951192;29;20415;-80
2021/01/22 01:13:48;;;;;;;35.03;15.95;;;;;;;5.31;76.14;97753.06;4951066;29;20055;-82
2021/01/22 01:16:14;;;;;;;32.22;13.98;;;;;;;5.45;75.14;97761.38;4949617;29;20035;-80
2021/01/22 01:18:40;;;;;;;30.48;14.05;;;;;;;5.64;74.61;97757.06;4969610;28;20024;-80
2021/01/22 01:21:05;;;;;;;32.25;12.55;;;;;;;5.77;73.68;97753.03;4943880;29;20059;-80
2021/01/22 01:23:31;;;;;;;70.50;28.25;;;;;;;5.93;73.09;97732.94;4937362;29;20091;-80
2021/01/22 01:25:56;;;;;;;47.85;19.45;;;;;;;5.98;72.41;97727.44;4949988;29;20040;-80
2021/01/22 01:28:22;;;;;;;124.57;49.05;;;;;;;6.06;72.19;97735.09;4945142;29;20036;-80
2021/01/22 01:30:47;;;;;;;22.20;11.57;;;;;;;6.19;71.27;97745.13;4941111;29;20031;-80
2021/01/22 01:33:13;;;;;;;102.32;41.15;;;;;;;6.11;71.88;97741.06;4947679;29;20087;-81
2021/01/22 01:35:38;;;;;;;55.53;26.05;;;;;;;5.98;72.43;97736.28;4934918;29;20031;-80
2021/01/22 01:38:04;;;;;;;26.05;12.52;;;;;;;6.02;72.24;97726.41;4936073;29;20039;-80
2021/01/22 01:40:30;;;;;;;17.67;8.63;;;;;;;6.08;72.22;97722.63;4952367;29;20047;-81
2021/01/22 01:42:55;;;;;;;19.55;9.23;;;;;;;6.10;71.79;97728.72;4952535;29;20027;-80
2021/01/22 01:45:21;;;;;;;16.38;8.75;;;;;;;5.91;72.13;97733.91;4965163;28;20038;-80
2021/01/22 01:47:47;;;;;;;46.97;15.88;;;;;;;5.85;72.33;97721.75;4953102;29;20038;-81
2021/01/22 01:50:13;;;;;;;20.30;10.07;;;;;;;5.79;72.42;97721.97;4936152;29;20032;-80
2021/01/22 01:52:39;;;;;;;17.65;8.27;;;;;;;5.85;72.04;97723.50;4936928;29;20516;-80
2021/01/22 01:55:06;;;;;;;21.27;9.32;;;;;;;5.71;73.04;97716.13;4931638;29;20035;-81
2021/01/22 01:57:31;;;;;;;16.45;8.48;;;;;;;5.61;72.56;97743.94;4950141;29;20569;-81
2021/01/22 01:59:59;;;;;;;15.38;7.32;;;;;;;5.34;73.63;97735.25;4941247;29;20027;-81
2021/01/22 02:02:25;;;;;;;14.43;7.57;;;;;;;5.19;74.42;97721.72;4953808;29;20034;-81
2021/01/22 02:04:50;;;;;;;16.85;8.35;;;;;;;5.12;75.17;97725.50;4966337;28;20187;-81
2021/01/22 02:07:16;;;;;;;16.02;9.88;;;;;;;5.10;75.34;97727.38;4943017;29;20028;-80
2021/01/22 02:09:41;;;;;;;17.65;8.63;;;;;;;5.02;75.56;97721.47;4933275;29;20520;-80
2021/01/22 02:12:07;;;;;;;33.97;17.75;;;;;;;4.92;75.81;97713.88;4946180;29;20465;-81
2021/01/22 02:14:34;;;;;;;53.53;20.35;;;;;;;4.87;76.52;97701.72;4950940;29;20044;-80
2021/01/22 02:17:00;;;;;;;43.22;17.25;;;;;;;4.78;76.67;97699.41;4936139;29;20035;-80
2021/01/22 02:19:43;;;;;;;39.38;16.45;;;;;;;4.83;76.80;97694.78;4918672;29;20028;-81
2021/01/22 02:22:08;;;;;;;46.03;18.73;;;;;;;4.77;77.34;97698.53;4939282;29;20087;-80
2021/01/22 02:24:34;;;;;;;30.17;12.35;;;;;;;4.83;77.00;97708.91;4950901;28;20040;-80
2021/01/22 02:27:04;;;;;;;27.15;12.07;;;;;;;4.84;77.23;97701.81;4951671;29;20032;-80
2021/01/22 02:29:31;;;;;;;26.75;11.13;;;;;;;4.80;77.46;97709.00;4934754;29;20062;-80
2021/01/22 02:32:02;;;;;;;54.53;23.00;;;;;;;4.73;77.79;97702.22;4934804;29;20118;-80
2021/01/22 02:34:29;;;;;;;90.10;36.17;;;;;;;4.75;77.98;97712.75;4931182;29;20127;-80
2021/01/22 02:36:59;;;;;;;59.05;25.08;;;;;;;4.69;77.96;97703.25;4933771;29;20031;-80
2021/01/22 02:39:31;;;;;;;95.35;39.65;;;;;;;4.65;78.62;97701.63;4934147;29;20028;-80
2021/01/22 02:41:58;;;;;;;74.35;33.00;;;;;;;4.61;78.95;97702.69;4932694;29;20050;-80
2021/01/22 02:44:24;;;;;;;85.57;35.30;;;;;;;4.58;79.58;97699.28;4910817;29;20020;-80
2021/01/22 02:46:49;;;;;;;79.25;34.47;;;;;;;4.55;79.64;97697.59;4913073;29;20015;-80
2021/01/22 02:49:15;;;;;;;86.55;36.63;;;;;;;4.57;79.96;97700.19;4934849;29;20039;-81
2021/01/22 02:51:41;;;;;;;31.27;15.02;;;;;;;4.69;79.62;97700.59;4932950;29;20127;-81
2021/01/22 02:54:07;;;;;;;33.40;13.70;;;;;;;5.08;77.55;97705.34;4934111;29;20032;-81
2021/01/22 02:56:56;;;;;;;102.45;45.90;;;;;;;5.23;76.57;97707.44;4937440;29;20031;-81
2021/01/22 02:59:41;;;;;;;29.52;15.30;;;;;;;5.18;76.32;97717.34;4954137;29;20411;-81
2021/01/22 03:02:16;;;;;;;26.17;13.10;;;;;;;5.08;77.73;97718.59;4952773;29;20055;-81
2021/01/22 03:04:41;;;;;;;26.75;12.45;;;;;;;4.93;78.88;97710.31;4953853;29;20393;-81
2021/01/22 03:07:12;;;;;;;24.88;11.68;;;;;;;4.73;77.60;97710.19;4953526;29;20034;-81
2021/01/22 03:09:40;;;;;;;24.13;12.20;;;;;;;4.68;78.33;97714.75;4938624;29;20028;-81
2021/01/22 03:12:07;;;;;;;23.88;12.07;;;;;;;4.64;78.24;97713.16;4947240;29;20031;-76
2021/01/22 03:14:33;;;;;;;29.83;14.07;;;;;;;4.65;79.12;97706.91;4919572;29;20036;-80
2021/01/22 03:16:59;;;;;;;46.97;19.30;;;;;;;4.89;78.99;97708.69;4920115;29;20059;-80
2021/01/22 03:19:25;;;;;;;5.38;3.42;;;;;;;5.62;75.71;97692.63;4951273;29;20062;-81
2021/01/22 03:21:50;;;;;;;6.50;3.35;;;;;;;6.60;71.38;97703.53;4931349;29;20141;-80
2021/01/22 03:24:16;;;;;;;7.18;3.22;;;;;;;7.22;68.01;97695.41;4923856;29;20044;-80
2021/01/22 03:26:42;;;;;;;4.68;2.33;;;;;;;7.77;64.88;97688.31;4927360;29;20488;-79
2021/01/22 03:29:07;;;;;;;17.20;3.95;;;;;;;7.97;63.97;97685.53;4920744;29;20051;-79
2021/01/22 03:31:33;;;;;;;6.22;3.67;;;;;;;8.08;63.38;97687.69;4940063;29;20032;-79
2021/01/22 03:33:58;;;;;;;6.18;3.40;;;;;;;8.30;62.27;97680.38;4940340;29;20036;-79
2021/01/22 03:36:24;;;;;;;8.10;4.57;;;;;;;8.33;62.56;97684.69;4923907;29;20099;-80
2021/01/22 03:38:49;;;;;;;11.40;6.05;;;;;;;8.07;62.63;97692.13;4912072;29;20043;-80
2021/01/22 03:41:15;;;;;;;12.52;6.72;;;;;;;7.53;63.91;97686.84;4935110;29;20122;-80
2021/01/22 03:43:41;;;;;;;18.38;9.02;;;;;;;7.18;65.22;97682.31;4934871;29;20063;-80
2021/01/22 03:46:06;;;;;;;16.00;7.88;;;;;;;6.84;66.79;97690.94;4927016;29;20036;-79
2021/01/22 03:48:32;;;;;;;14.70;7.10;;;;;;;6.55;68.10;97681.63;4942910;29;20043;-75
2021/01/22 03:50:57;;;;;;;16.27;7.55;;;;;;;6.29;69.50;97677.44;4922317;29;20043;-80
2021/01/22 03:53:23;;;;;;;13.30;7.00;;;;;;;6.15;70.46;97684.28;4923497;29;20036;-80
2021/01/22 03:55:49;;;;;;;14.93;7.75;;;;;;;6.01;71.34;97674.22;4942764;28;20040;-80
2021/01/22 03:58:14;;;;;;;18.17;8.88;;;;;;;5.79;73.86;97673.34;4920276;29;20042;-79
2021/01/22 04:00:40;;;;;;;20.45;11.27;;;;;;;5.64;73.45;97674.81;4933535;29;20046;-80
2021/01/22 04:03:05;;;;;;;17.23;8.52;;;;;;;5.57;73.51;97680.47;4921628;29;20526;-79
2021/01/22 04:05:31;;;;;;;20.17;10.68;;;;;;;5.45;74.42;97681.78;4939357;29;20452;-79
2021/01/22 04:07:57;;;;;;;23.00;9.80;;;;;;;5.34;74.55;97668.09;4923996;29;20462;-79
2021/01/22 04:10:22;;;;;;;24.42;8.98;;;;;;;5.18;75.72;97666.97;4923349;29;20043;-79
2021/01/22 04:12:48;;;;;;;11.73;5.85;;;;;;;5.34;75.53;97676.06;4923043;29;20087;-81
2021/01/22 04:15:13;;;;;;;13.35;5.88;;;;;;;5.47;75.11;97656.91;4923454;29;20035;-81
2021/01/22 04:17:39;;;;;;;17.30;7.97;;;;;;;5.57;74.60;97660.06;4930925;29;20499;-79
2021/01/22 04:20:06;;;;;;;19.83;8.88;;;;;;;5.46;74.97;97664.97;4922603;29;20024;-78
2021/01/22 04:22:31;;;;;;;25.13;10.80;;;;;;;5.39;75.36;97676.72;4922970;29;20163;-81
2021/01/22 04:24:57;;;;;;;20.10;10.48;;;;;;;5.34;75.86;97666.31;4923177;29;20119;-81
2021/01/22 04:27:22;;;;;;;19.50;8.52;;;;;;;5.28;75.71;97671.00;4938934;29;20036;-80
2021/01/22 04:29:48;;;;;;;12.45;6.28;;;;;;;5.19;75.96;97668.69;4925058;29;20492;-80
2021/01/22 04:32:14;;;;;;;19.10;7.75;;;;;;;5.16;76.18;97671.47;4950319;28;20496;-80
2021/01/22 04:34:40;;;;;;;25.92;11.50;;;;;;;5.10;76.83;97674.34;4925863;29;20032;-80
2021/01/22 04:37:06;;;;;;;36.05;16.80;;;;;;;4.95;77.19;97670.50;4929569;29;20032;-81
2021/01/22 04:39:32;;;;;;;36.13;16.48;;;;;;;4.86;78.47;97662.91;4922678;29;20043;-80
2021/01/22 04:41:58;;;;;;;28.52;14.38;;;;;;;4.69;78.67;97667.94;4922740;29;20024;-80
2021/01/22 04:44:24;;;;;;;26.25;12.30;;;;;;;4.71;78.90;97658.16;4923044;29;20024;-80
2021/01/22 04:46:50;;;;;;;26.88;13.10;;;;;;;4.65;80.15;97672.47;4916740;29;20039;-80
2021/01/22 04:49:16;;;;;;;75.32;30.38;;;;;;;4.59;80.26;97661.25;4910209;29;20463;-80
2021/01/22 04:51:43;;;;;;;55.25;27.55;;;;;;;4.61;80.39;97670.03;4901227;29;20068;-80
2021/01/22 04:54:29;;;;;;;58.67;27.58;;;;;;;4.59;80.36;97667.41;4920942;29;20035;-82
2021/01/22 04:56:57;;;;;;;64.35;29.98;;;;;;;4.64;80.24;97662.84;4921493;29;20039;-82
2021/01/22 04:59:39;;;;;;;57.85;26.27;;;;;;;4.66;80.57;97662.75;4935045;29;20054;-80
2021/01/22 05:02:05;;;;;;;57.20;25.48;;;;;;;4.62;80.41;97667.31;4920281;29;20411;-80
2021/01/22 05:04:31;;;;;;;100.10;44.70;;;;;;;4.58;80.73;97655.13;4914914;29;20034;-81
2021/01/22 05:06:57;;;;;;;93.43;41.80;;;;;;;4.58;81.02;97654.25;4918022;29;20032;-80
2021/01/22 05:09:24;;;;;;;131.10;54.25;;;;;;;4.63;81.17;97657.56;4931883;29;20043;-81
2021/01/22 05:11:53;;;;;;;129.57;54.80;;;;;;;4.59;81.13;97653.31;4918634;29;20039;-81
2021/01/22 05:14:20;;;;;;;167.48;76.05;;;;;;;4.58;81.83;97660.41;4948729;29;20112;-82
2021/01/22 05:17:15;;;;;;;131.05;63.03;;;;;;;4.61;81.67;97659.44;4923416;29;20035;-82
2021/01/22 05:19:42;;;;;;;135.95;63.40;;;;;;;4.67;81.37;97662.72;4922840;29;20040;-81
2021/01/22 05:22:13;;;;;;;129.55;57.28;;;;;;;4.73;81.17;97643.94;4905059;29;20024;-79
2021/01/22 05:24:39;;;;;;;118.97;54.85;;;;;;;4.71;80.69;97656.38;4903659;29;20059;-79
2021/01/22 05:27:13;;;;;;;153.70;69.35;;;;;;;4.66;80.85;97658.34;4908904;29;20083;-81
2021/01/22 05:29:41;;;;;;;125.90;58.10;;;;;;;4.42;81.53;97658.34;4927166;29;20043;-82
2021/01/22 05:32:30;;;;;;;125.90;56.83;;;;;;;4.44;81.95;97653.84;4908942;29;20031;-81
2021/01/22 05:35:10;;;;;;;214.38;92.30;;;;;;;4.40;82.79;97637.22;4952632;29;20096;-81
2021/01/22 05:37:50;;;;;;;67.18;33.55;;;;;;;4.46;82.65;97634.34;4927235;29;20091;-80
2021/01/22 05:40:15;;;;;;;107.65;46.83;;;;;;;4.61;82.57;97635.59;4933059;29;20500;-81
2021/01/22 05:42:45;;;;;;;127.28;54.65;;;;;;;4.77;81.11;97637.59;4920052;29;20035;-82
2021/01/22 05:45:11;;;;;;;171.15;72.60;;;;;;;4.87;80.43;97624.88;4924089;29;20035;-81
2021/01/22 05:47:36;;;;;;;132.90;56.00;;;;;;;4.97;80.03;97630.69;4929432;29;20035;-82
2021/01/22 05:50:02;;;;;;;88.75;41.55;;;;;;;4.99;79.59;97626.16;4924433;29;20095;-81
2021/01/22 05:52:31;;;;;;;132.73;56.38;;;;;;;5.15;79.05;97622.88;4934125;29;20123;-81
2021/01/22 05:54:57;;;;;;;110.93;50.22;;;;;;;5.21;78.71;97629.72;4933230;29;20038;-80
2021/01/22 05:57:24;;;;;;;95.03;42.38;;;;;;;5.34;79.31;97620.38;4920628;29;20426;-81
2021/01/22 06:00:10;;;;;;;81.65;38.45;;;;;;;5.50;77.51;97626.78;4932874;29;20054;-81
2021/01/22 06:02:35;;;;;;;90.45;45.05;;;;;;;5.73;77.75;97628.47;4922549;29;20035;-81
2021/01/22 06:05:08;;;;;;;66.50;32.83;;;;;;;5.84;75.83;97629.78;4922691;29;20404;-81
2021/01/22 06:07:40;;;;;;;52.25;23.98;;;;;;;6.03;75.22;97627.22;4936629;29;20032;-80
2021/01/22 06:10:22;;;;;;;19.77;9.82;;;;;;;6.27;73.09;97628.84;4931533;29;20063;-80
2021/01/22 06:12:53;;;;;;;23.20;10.40;;;;;;;6.71;71.11;97628.63;4924367;29;20496;-80
2021/01/22 06:15:23;;;;;;;31.10;14.95;;;;;;;7.02;70.04;97631.59;4916494;29;20048;-81
2021/01/22 06:17:50;;;;;;;40.30;18.80;;;;;;;7.24;68.92;97636.78;4914822;29;20595;-80
2021/01/22 06:20:18;;;;;;;89.00;38.70;;;;;;;7.31;68.18;97624.94;4934447;29;20048;-80
2021/01/22 06:22:53;;;;;;;90.65;41.03;;;;;;;7.35;67.87;97651.31;4934541;29;20103;-80
2021/01/22 06:25:19;;;;;;;60.38;30.30;;;;;;;7.33;67.86;97639.88;4909498;29;20451;-82
2021/01/22 06:27:46;;;;;;;54.95;26.92;;;;;;;7.39;67.79;97625.41;4925282;29;20034;-81
2021/01/22 06:30:16;;;;;;;55.53;26.80;;;;;;;7.44;67.75;97623.41;4914170;29;20031;-81
2021/01/22 06:32:42;;;;;;;56.63;24.77;;;;;;;7.59;67.04;97643.97;4930111;29;20427;-80
2021/01/22 06:35:10;;;;;;;92.80;45.90;;;;;;;7.63;68.07;97632.22;4907246;29;20040;-80
2021/01/22 06:37:35;;;;;;;83.63;36.95;;;;;;;7.63;67.04;97632.22;4936748;29;20074;-80
2021/01/22 06:40:04;;;;;;;86.05;38.42;;;;;;;7.84;66.83;97630.31;4934342;29;20067;-81
2021/01/22 06:42:37;;;;;;;111.53;43.65;;;;;;;7.94;67.30;97636.88;4927957;28;20027;-82
2021/01/22 06:45:06;;;;;;;;;;;;;;;8.12;65.16;97633.31;4913874;29;20027;-82
2021/01/22 06:47:32;;;;;;;103.05;46.78;;;;;;;8.13;64.94;97619.91;4946701;28;20005;-81
2021/01/22 06:49:58;;;;;;;97.82;46.97;;;;;;;8.36;64.57;97625.88;4949091;29;20032;-81
2021/01/22 06:52:41;;;;;;;104.28;50.42;;;;;;;8.56;64.10;97623.03;4937511;29;20114;-81
2021/01/22 06:55:07;;;;;;;78.72;40.20;;;;;;;8.59;63.36;97621.06;4933821;29;20035;-80
2021/01/22 06:57:32;;;;;;;88.07;44.53;;;;;;;8.88;61.95;97629.31;4930530;29;20067;-80
2021/01/22 06:59:58;;;;;;;113.90;55.47;;;;;;;9.07;61.40;97609.59;4919983;29;20036;-81
2021/01/22 07:02:34;;;;;;;130.52;65.05;;;;;;;9.56;60.16;97625.53;4953143;29;20027;-81
2021/01/22 07:05:00;;;;;;;129.98;63.90;;;;;;;10.00;58.68;97625.63;4926067;29;20516;-81
2021/01/22 07:07:45;;;;;;;86.35;45.33;;;;;;;10.65;56.60;97617.22;4942646;29;20031;-81
2021/01/22 07:10:11;;;;;;;89.90;46.67;;;;;;;11.21;54.38;97621.75;4925110;29;20059;-81
2021/01/22 07:12:37;;;;;;;73.63;40.58;;;;;;;11.80;53.02;97620.59;4921213;29;20032;-81
2021/01/22 07:15:25;;;;;;;88.47;45.75;;;;;;;12.15;51.09;97623.59;4931247;29;20039;-81
2021/01/22 07:17:55;;;;;;;82.88;41.88;;;;;;;11.49;51.81;97618.16;4941870;29;20129;-81
2021/01/22 07:20:21;;;;;;;117.00;54.60;;;;;;;11.47;52.94;97611.19;4908120;29;20040;-81
2021/01/22 07:22:57;;;;;;;115.53;53.55;;;;;;;11.52;53.33;97609.06;4928057;29;20028;-81
2021/01/22 07:25:44;;;;;;;98.93;45.78;;;;;;;11.40;51.96;97603.53;4923534;29;20481;-81
2021/01/22 07:28:12;;;;;;;52.45;25.90;;;;;;;12.03;50.35;97607.50;4940092;29;20024;-80
2021/01/22 07:30:39;;;;;;;22.40;12.70;;;;;;;13.22;47.10;97609.03;4937408;29;20031;-80
2021/01/22 07:33:26;;;;;;;17.42;8.68;;;;;;;14.03;44.27;97607.47;4925582;29;20099;-81
2021/01/22 07:36:10;;;;;;;13.02;7.63;;;;;;;14.25;43.45;97614.78;4940774;29;20035;-81
2021/01/22 07:38:37;;;;;;;18.58;9.80;;;;;;;14.95;42.13;97618.34;4944808;29;20055;-82
2021/01/22 07:41:04;;;;;;;14.77;9.63;;;;;;;15.45;41.35;97620.56;4945305;29;20038;-81
2021/01/22 07:43:29;;;;;;;24.17;10.02;;;;;;;15.76;40.05;97610.03;4927882;29;20035;-81
2021/01/22 07:46:10;;;;;;;26.20;10.77;;;;;;;16.12;39.54;97618.63;4909276;29;20028;-82
2021/01/22 07:48:36;;;;;;;37.42;17.50;;;;;;;16.51;39.66;97619.88;4943544;29;20063;-81
2021/01/22 07:51:34;;;;;;;34.00;14.88;;;;;;;16.09;39.49;97623.44;4935147;29;20032;-81
2021/01/22 07:54:01;;;;;;;35.88;18.98;;;;;;;16.39;39.70;97620.91;4945623;29;20460;-81
2021/01/22 07:56:37;;;;;;;22.55;12.32;;;;;;;16.60;37.83;97618.25;4907454;29;20067;-81
2021/01/22 07:59:04;;;;;;;11.43;6.65;;;;;;;16.87;37.77;97598.81;4923211;29;20059;-81
2021/01/22 08:01:30;;;;;;;22.33;10.25;;;;;;;16.91;37.12;97595.72;4929283;29;20095;-81
2021/01/22 08:03:55;;;;;;;15.88;7.78;;;;;;;17.18;36.43;97587.03;4927271;29;20112;-81
2021/01/22 08:06:21;;;;;;;9.70;5.25;;;;;;;16.94;37.21;97583.78;4937085;29;20064;-81
2021/01/22 08:08:47;;;;;;;12.50;6.68;;;;;;;16.49;38.09;97594.81;4942549;29;20051;-81
2021/01/22 08:11:23;;;;;;;9.93;6.00;;;;;;;15.99;38.99;97593.69;4930348;29;20034;-82
2021/01/22 08:13:48;;;;;;;12.05;5.78;;;;;;;15.78;38.87;97581.13;4934154;29;20087;-81
2021/01/22 08:16:21;;;;;;;14.35;8.43;;;;;;;15.28;40.14;97577.94;4921300;29;20489;-82
2021/01/22 08:18:47;;;;;;;11.48;6.80;;;;;;;14.72;41.55;97574.38;4920603;29;20032;-81
2021/01/22 08:21:13;;;;;;;10.52;4.82;;;;;;;14.46;41.60;97576.38;4928233;29;20028;-82
2021/01/22 08:23:44;;;;;;;15.80;7.47;;;;;;;14.32;42.09;97581.94;4933871;29;20031;-81
2021/01/22 08:26:15;;;;;;;12.10;5.20;;;;;;;14.60;41.52;97591.47;4936342;29;20052;-80
2021/01/22 08:28:41;;;;;;;5.32;3.22;;;;;;;14.75;41.08;97586.72;4943890;28;20066;-81
2021/01/22 08:31:13;;;;;;;14.13;7.18;;;;;;;14.86;42.06;97592.16;4959828;28;20067;-80
2021/01/22 08:33:39;;;;;;;33.35;15.35;;;;;;;14.90;42.17;97607.94;4947228;29;20036;-81
2021/01/22 08:36:06;;;;;;;28.70;11.43;;;;;;;14.60;42.46;97605.78;4900346;29;20040;-81
2021/01/22 08:38:32;;;;;;;7.75;4.05;;;;;;;14.37;42.11;97587.84;4948423;29;20032;-81
2021/01/22 08:40:58;;;;;;;25.85;13.20;;;;;;;14.37;42.00;97590.53;4923707;29;20024;-81
2021/01/22 08:43:24;;;;;;;24.67;13.88;;;;;;;14.11;43.52;97573.66;4916576;29;20031;-81
2021/01/22 08:46:06;;;;;;;27.17;14.30;;;;;;;13.92;44.08;97567.97;4930406;29;20035;-81
2021/01/22 08:48:33;;;;;;;18.73;8.13;;;;;;;13.71;43.73;97596.44;4917295;29;20039;-81
2021/01/22 08:51:02;;;;;;;16.42;7.30;;;;;;;13.42;43.96;97589.63;4925424;29;20032;-81
2021/01/22 08:53:28;;;;;;;16.08;4.55;;;;;;;13.27;44.76;97580.88;4945139;29;20532;-81
2021/01/22 08:56:13;;;;;;;12.48;5.43;;;;;;;13.22;44.51;97585.72;4937279;29;20055;-81
2021/01/22 08:59:04;;;;;;;7.22;4.57;;;;;;;13.21;44.47;97586.69;4942037;29;20032;-81
2021/01/22 09:01:57;;;;;;;11.30;5.15;;;;;;;13.06;44.76;97579.69;4929868;29;20059;-81
2021/01/22 09:04:27;;;;;;;7.18;4.50;;;;;;;13.05;44.97;97580.66;4908690;29;20424;-81
2021/01/22 09:06:56;;;;;;;10.93;4.30;;;;;;;13.04;44.88;97578.94;4936186;29;20035;-82
2021/01/22 09:09:42;;;;;;;10.50;4.80;;;;;;;12.91;45.04;97573.59;4950086;29;20507;-81
2021/01/22 09:12:14;;;;;;;9.70;5.32;;;;;;;12.86;45.38;97569.50;4918668;29;20055;-82
2021/01/22 09:14:46;;;;;;;;;;;;;;;12.86;45.29;97573.03;4920715;29;20032;-82
2021/01/22 09:17:28;;;;;;;16.17;6.20;;;;;;;12.81;45.80;97566.28;4933552;29;19914;-81
2021/01/22 09:19:58;;;;;;;14.77;6.43;;;;;;;12.84;45.88;97566.94;4933927;29;20567;-81
2021/01/22 09:22:25;;;;;;;17.63;7.70;;;;;;;12.87;45.72;97560.47;4918074;29;20040;-81
2021/01/22 09:24:51;;;;;;;14.00;8.38;;;;;;;12.99;45.85;97562.28;4933496;29;20563;-82
2021/01/22 09:27:17;;;;;;;13.45;6.25;;;;;;;12.99;44.97;97551.53;4949516;29;20032;-82
2021/01/22 09:29:42;;;;;;;19.17;8.40;;;;;;;12.95;45.22;97545.53;4933905;29;20095;-82
2021/01/22 09:32:08;;;;;;;11.30;6.03;;;;;;;12.92;45.24;97537.69;4917894;29;20039;-82
2021/01/22 09:34:33;;;;;;;11.18;6.03;;;;;;;12.93;45.45;97538.56;4950090;29;20051;-81
2021/01/22 09:37:00;;;;;;;15.15;5.60;;;;;;;12.86;44.98;97529.22;4920286;29;20040;-82
2021/01/22 09:39:26;;;;;;;10.32;5.88;;;;;;;12.84;45.29;97532.03;4963702;28;20039;-81
2021/01/22 09:41:52;;;;;;;12.77;7.65;;;;;;;12.82;45.65;97533.13;4921110;29;20028;-81
2021/01/22 09:44:18;;;;;;;25.40;8.75;;;;;;;12.84;45.50;97537.41;4930448;29;20024;-81
2021/01/22 09:46:44;;;;;;;10.23;5.53;;;;;;;12.86;45.16;97545.31;4949189;29;20030;-82
2021/01/22 09:49:10;;;;;;;11.43;6.50;;;;;;;12.78;45.21;97531.59;4926618;29;20028;-81
2021/01/22 09:51:35;;;;;;;9.75;5.07;;;;;;;12.74;45.47;97535.47;4914130;29;20119;-81
2021/01/22 09:54:01;;;;;;;16.02;7.57;;;;;;;12.73;45.36;97537.31;4919539;29;20175;-81
2021/01/22 09:56:27;;;;;;;13.40;7.07;;;;;;;12.67;45.11;97518.09;4932103;29;20480;-80
2021/01/22 09:58:52;;;;;;;26.77;10.48;;;;;;;12.75;45.25;97518.41;4926970;29;20028;-81
2021/01/22 10:01:18;;;;;;;18.10;8.63;;;;;;;12.85;44.98;97508.72;4926184;29;20047;-81
2021/01/22 10:03:43;;;;;;;11.80;4.93;;;;;;;12.87;45.00;97507.66;4927303;29;20163;-82
2021/01/22 10:06:12;;;;;;;13.32;6.50;;;;;;;12.95;45.13;97507.94;4949928;29;20091;-81
2021/01/22 10:08:38;;;;;;;9.82;5.25;;;;;;;13.03;45.02;97496.66;4949138;29;20361;-81
2021/01/22 10:11:04;;;;;;;10.10;6.20;;;;;;;13.10;44.83;97492.59;4933560;29;20032;-81
2021/01/22 10:13:30;;;;;;;17.63;5.65;;;;;;;13.17;45.02;97490.31;4940102;29;20047;-81
2021/01/22 10:15:56;;;;;;;10.48;6.20;;;;;;;13.26;44.33;97478.91;4910673;29;20126;-81
2021/01/22 10:18:23;;;;;;;8.55;5.13;;;;;;;13.35;44.17;97486.28;4933893;29;20179;-81
2021/01/22 10:20:49;;;;;;;15.98;6.55;;;;;;;13.42;44.16;97472.28;4937304;29;20035;-81
2021/01/22 10:23:15;;;;;;;10.18;6.00;;;;;;;13.52;43.62;97478.69;4953704;29;20063;-82
2021/01/22 10:25:41;;;;;;;6.88;3.83;;;;;;;13.63;43.10;97474.34;4929207;29;20052;-82
2021/01/22 10:28:06;;;;;;;10.63;6.43;;;;;;;13.60;43.42;97466.50;4938115;29;20031;-82
2021/01/22 10:30:32;;;;;;;7.90;4.82;;;;;;;13.67;43.34;97475.81;4936074;29;20046;-82
2021/01/22 10:32:57;;;;;;;9.77;5.40;;;;;;;13.62;43.19;97457.34;4923350;29;20063;-81
2021/01/22 10:35:23;;;;;;;11.85;6.90;;;;;;;13.74;43.19;97458.25;4921641;29;20036;-80
2021/01/22 10:37:48;;;;;;;10.00;5.53;;;;;;;13.78;42.84;97457.88;4923249;29;20031;-81
2021/01/22 10:40:14;;;;;;;15.43;4.35;;;;;;;13.81;42.25;97452.25;4937409;29;20042;-82
2021/01/22 10:42:40;;;;;;;22.10;9.38;;;;;;;13.86;42.27;97454.63;4930094;29;20044;-81
2021/01/22 10:45:06;;;;;;;7.45;4.65;;;;;;;13.92;42.29;97455.00;4954170;28;20030;-81
2021/01/22 10:47:31;;;;;;;10.15;5.88;;;;;;;14.06;41.96;97462.00;4936401;28;20055;-81
2021/01/22 10:49:57;;;;;;;15.23;6.65;;;;;;;14.07;42.00;97455.66;4918392;29;20028;-81
2021/01/22 10:52:22;;;;;;;13.25;7.18;;;;;;;14.05;42.06;97461.16;4942389;29;20144;-82
2021/01/22 10:54:48;;;;;;;12.05;5.85;;;;;;;14.07;42.07;97447.59;4918397;29;20063;-82
2021/01/22 10:57:14;;;;;;;19.75;8.93;;;;;;;14.09;42.64;97456.38;4932129;29;20130;-82
2021/01/22 10:59:39;;;;;;;19.17;7.05;;;;;;;14.20;42.61;97442.97;4943827;28;20047;-81
2021/01/22 11:02:09;;;;;;;40.55;18.67;;;;;;;14.23;42.27;97453.50;4920518;29;20039;-81
2021/01/22 11:04:35;;;;;;;17.77;9.35;;;;;;;14.26;42.04;97430.88;4927376;29;20036;-81
2021/01/22 11:07:01;;;;;;;18.92;8.45;;;;;;;14.30;42.13;97443.13;4963561;28;20064;-81
2021/01/22 11:09:26;;;;;;;15.48;8.52;;;;;;;14.49;41.81;97441.56;4946084;29;20035;-82
2021/01/22 11:11:52;;;;;;;28.25;14.88;;;;;;;14.63;41.47;97437.78;4920728;29;20035;-81
2021/01/22 11:14:17;;;;;;;26.58;11.60;;;;;;;14.64;41.48;97421.50;4937407;29;20540;-82
2021/01/22 11:16:43;;;;;;;21.85;9.60;;;;;;;14.62;41.83;97422.59;4923021;29;20035;-81
2021/01/22 11:19:09;;;;;;;22.05;11.77;;;;;;;14.63;42.00;97414.41;4940211;29;20110;-81
2021/01/22 11:21:34;;;;;;;15.07;7.63;;;;;;;14.63;41.55;97421.63;4938018;29;20036;-81
2021/01/22 11:24:00;;;;;;;20.65;9.65;;;;;;;14.57;41.47;97408.66;4936198;29;20095;-80
2021/01/22 11:26:29;;;;;;;20.52;9.73;;;;;;;14.48;42.01;97404.88;4929121;29;20044;-81
2021/01/22 11:28:55;;;;;;;16.58;9.45;;;;;;;14.35;42.21;97408.66;4920426;29;20031;-81
2021/01/22 11:31:20;;;;;;;13.75;8.50;;;;;;;14.30;41.96;97410.81;4928888;29;20035;-81